createdAt,value
2023-02-22T00:00:19.509Z,5.30
2023-02-22T00:03:41.706Z,5.75
2023-02-22T00:06:45.410Z,6.78
2023-02-22T00:09:47.598Z,5.43
2023-02-22T00:12:50.604Z,5.55
2023-02-22T00:15:52.779Z,5.38
2023-02-22T00:18:54.863Z,5.75
2023-02-22T00:21:58.076Z,4.95
2023-02-22T00:25:00.021Z,5.38
2023-02-22T00:28:03.745Z,6.00
2023-02-22T00:31:07.609Z,5.75
2023-02-22T00:34:09.857Z,5.70
2023-02-22T00:37:11.842Z,6.68
2023-02-22T00:40:17.988Z,6.63
2023-02-22T00:43:19.800Z,6.00
2023-02-22T00:46:23.197Z,6.32
2023-02-22T00:49:28.078Z,6.53
2023-02-22T00:52:30.186Z,6.25
2023-02-22T00:55:35.096Z,6.30
2023-02-22T00:58:37.248Z,6.95
2023-02-22T01:01:39.175Z,6.10
2023-02-22T01:04:41.540Z,6.75
2023-02-22T01:07:44.041Z,7.25
2023-02-22T01:10:46.683Z,7.15
2023-02-22T01:13:48.612Z,7.57
2023-02-22T01:16:51.029Z,7.35
2023-02-22T01:19:54.101Z,7.38
2023-02-22T01:22:59.645Z,6.90
2023-02-22T01:29:05.011Z,6.05
2023-02-22T01:32:07.354Z,6.72
2023-02-22T01:35:14.307Z,7.03
2023-02-22T01:38:17.288Z,7.43
2023-02-22T01:41:19.452Z,7.80
2023-02-22T01:44:31.378Z,7.32
2023-02-22T01:47:34.537Z,7.85
2023-02-22T01:50:42.211Z,8.05
2023-02-22T01:53:47.647Z,7.40
2023-02-22T01:56:57.035Z,7.68
2023-02-22T02:00:10.083Z,7.70
2023-02-22T02:03:27.487Z,7.47
2023-02-22T02:06:33.590Z,7.63
2023-02-22T02:09:37.382Z,8.00
2023-02-22T02:12:42.197Z,8.70
2023-02-22T02:18:46.989Z,8.18
2023-02-22T02:22:07.013Z,8.15
2023-02-22T02:25:31.176Z,7.78
2023-02-22T02:28:54.891Z,7.20
2023-02-22T02:32:28.623Z,7.95
2023-02-22T02:35:47.891Z,8.55
2023-02-22T02:38:59.332Z,7.43
2023-02-22T02:42:07.442Z,7.38
2023-02-22T02:45:17.635Z,7.80
2023-02-22T02:48:23.612Z,7.43
2023-02-22T02:51:40.370Z,7.05
2023-02-22T02:54:43.391Z,6.93
2023-02-22T02:57:45.575Z,7.30
2023-02-22T03:00:50.394Z,7.63
2023-02-22T03:04:03.077Z,7.10
2023-02-22T03:07:20.244Z,6.93
2023-02-22T03:10:38.891Z,6.53
2023-02-22T03:14:02.131Z,6.88
2023-02-22T03:17:12.122Z,7.05
2023-02-22T03:20:32.048Z,7.38
2023-02-22T03:23:55.591Z,7.53
2023-02-22T03:27:23.658Z,6.25
2023-02-22T03:30:33.906Z,6.13
2023-02-22T03:34:08.747Z,6.70
2023-02-22T03:37:34.266Z,5.88
2023-02-22T03:40:46.534Z,6.43
2023-02-22T03:43:54.690Z,6.07
2023-02-22T03:47:02.070Z,6.88
2023-02-22T03:50:52.767Z,6.13
2023-02-22T03:54:04.954Z,6.43
2023-02-22T03:57:22.454Z,7.00
2023-02-22T04:00:32.080Z,6.25
2023-02-22T04:03:34.253Z,6.55
2023-02-22T04:06:37.009Z,5.97
2023-02-22T04:09:39.590Z,5.63
2023-02-22T04:12:41.777Z,5.40
2023-02-22T04:15:43.961Z,5.50
2023-02-22T04:18:47.788Z,5.68
2023-02-22T04:21:53.562Z,5.47
2023-02-22T04:25:00.233Z,5.38
2023-02-22T04:28:03.390Z,5.85
2023-02-22T04:31:14.500Z,5.50
2023-02-22T04:34:16.926Z,5.85
2023-02-22T04:37:19.270Z,5.88
2023-02-22T04:40:21.632Z,5.35
2023-02-22T04:43:23.569Z,5.88
2023-02-22T04:46:28.397Z,5.93
2023-02-22T04:49:30.796Z,6.15
2023-02-22T04:52:33.883Z,6.32
2023-02-22T04:55:35.805Z,5.55
2023-02-22T04:58:38.004Z,5.03
2023-02-22T05:01:40.056Z,5.70
2023-02-22T05:04:42.295Z,5.55
2023-02-22T05:07:44.902Z,5.47
2023-02-22T05:10:47.053Z,5.40
2023-02-22T05:13:49.262Z,5.57
2023-02-22T05:16:51.854Z,4.93
2023-02-22T05:19:53.729Z,5.28
2023-02-22T05:22:56.887Z,6.07
2023-02-22T05:25:58.917Z,5.53
2023-02-22T05:29:01.096Z,5.57
2023-02-22T05:32:03.278Z,5.82
2023-02-22T05:35:06.095Z,5.60
2023-02-22T05:38:08.392Z,5.85
2023-02-22T05:41:12.559Z,5.70
2023-02-22T05:44:14.752Z,6.50
2023-02-22T05:47:16.833Z,6.32
2023-02-22T05:50:19.917Z,6.40
2023-02-22T05:53:23.839Z,6.15
2023-02-22T05:56:28.393Z,6.57
2023-02-22T05:59:30.640Z,6.38
2023-02-22T06:02:33.880Z,5.65
2023-02-22T06:05:37.447Z,5.30
2023-02-22T06:08:39.737Z,5.20
2023-02-22T06:11:41.823Z,6.03
2023-02-22T06:14:46.036Z,6.20
2023-02-22T06:20:50.978Z,5.20
2023-02-22T06:23:53.249Z,5.68
2023-02-22T06:27:00.440Z,5.57
2023-02-22T06:30:03.164Z,5.28
2023-02-22T06:33:05.076Z,4.88
2023-02-22T06:36:08.010Z,5.03
2023-02-22T06:39:12.900Z,4.93
2023-02-22T06:42:15.141Z,4.65
2023-02-22T06:45:18.330Z,4.85
2023-02-22T06:48:20.542Z,4.68
2023-02-22T06:51:22.828Z,4.47
2023-02-22T06:54:25.016Z,5.28
2023-02-22T06:57:26.980Z,4.55
2023-02-22T07:00:32.254Z,4.30
2023-02-22T07:03:35.900Z,5.18
2023-02-22T07:06:38.468Z,4.55
2023-02-22T07:09:40.483Z,4.35
2023-02-22T07:12:42.751Z,4.50
2023-02-22T07:15:44.990Z,3.83
2023-02-22T07:18:50.833Z,4.10
2023-02-22T07:21:59.360Z,3.72
2023-02-22T07:25:01.835Z,3.53
2023-02-22T07:28:04.023Z,4.00
2023-02-22T07:31:06.267Z,3.60
2023-02-22T07:34:08.225Z,3.90
2023-02-22T07:37:10.626Z,3.83
2023-02-22T07:40:12.768Z,3.95
2023-02-22T07:43:24.632Z,4.15
2023-02-22T07:46:27.875Z,4.28
2023-02-22T07:49:30.194Z,4.05
2023-02-22T07:52:32.102Z,4.40
2023-02-22T07:55:35.013Z,4.32
2023-02-22T07:58:37.175Z,4.65
2023-02-22T08:01:40.174Z,5.30
2023-02-22T08:04:42.103Z,5.13
2023-02-22T08:07:44.327Z,5.10
2023-02-22T08:10:46.707Z,5.25
2023-02-22T08:13:48.869Z,4.63
2023-02-22T08:16:50.895Z,4.20
2023-02-22T08:19:53.098Z,4.40
2023-02-22T08:22:56.003Z,4.75
2023-02-22T08:26:04.937Z,4.30
2023-02-22T08:29:07.174Z,4.65
2023-02-22T08:32:09.446Z,4.88
2023-02-22T08:35:14.052Z,4.15
2023-02-22T08:38:23.126Z,5.00
2023-02-22T08:41:25.103Z,5.63
2023-02-22T08:44:27.285Z,5.15
2023-02-22T08:47:29.246Z,4.88
2023-02-22T08:50:35.749Z,4.68
2023-02-22T08:53:38.381Z,4.45
2023-02-22T08:56:40.484Z,4.15
2023-02-22T08:59:42.894Z,4.35
2023-02-22T09:02:45.366Z,5.00
2023-02-22T09:05:47.675Z,4.75
2023-02-22T09:08:50.068Z,4.90
2023-02-22T09:11:53.186Z,4.40
2023-02-22T09:14:55.421Z,4.70
2023-02-22T09:17:57.645Z,4.65
2023-02-22T09:20:59.991Z,4.20
2023-02-22T09:24:08.489Z,4.68
2023-02-22T09:27:12.212Z,4.00
2023-02-22T09:30:26.582Z,4.50
2023-02-22T09:33:28.963Z,4.80
2023-02-22T09:36:30.863Z,4.60
2023-02-22T09:39:37.514Z,4.45
2023-02-22T09:42:45.652Z,4.45
2023-02-22T09:46:19.783Z,4.57
2023-02-22T09:49:29.557Z,5.20
2023-02-22T09:52:40.100Z,6.00
2023-02-22T09:55:53.430Z,4.93
2023-02-22T09:59:00.408Z,5.40
2023-02-22T10:02:26.915Z,5.22
2023-02-22T10:05:38.086Z,5.75
2023-02-22T10:08:41.814Z,5.72
2023-02-22T10:12:11.945Z,5.45
2023-02-22T10:15:16.710Z,5.43
2023-02-22T10:18:34.065Z,5.40
2023-02-22T10:22:00.229Z,5.78
2023-02-22T10:25:05.285Z,5.55
2023-02-22T10:28:18.762Z,5.13
2023-02-22T10:31:28.424Z,5.88
2023-02-22T10:34:41.518Z,4.95
2023-02-22T10:37:44.821Z,4.43
2023-02-22T10:41:09.901Z,4.45
2023-02-22T10:44:12.125Z,4.20
2023-02-22T10:47:17.859Z,4.05
2023-02-22T10:50:21.775Z,3.95
2023-02-22T10:53:23.748Z,4.05
2023-02-22T10:56:27.770Z,4.00
2023-02-22T10:59:35.457Z,4.68
2023-02-22T11:02:37.994Z,3.83
2023-02-22T11:05:41.269Z,3.83
2023-02-22T11:08:44.104Z,4.38
2023-02-22T11:11:48.109Z,3.42
2023-02-22T11:14:50.415Z,4.10
2023-02-22T11:17:55.723Z,3.67
2023-02-22T11:21:11.763Z,4.32
2023-02-22T11:30:46.730Z,3.75
2023-02-22T11:37:38.249Z,3.33
2023-02-22T11:40:48.718Z,3.30
2023-02-22T11:43:51.955Z,4.20
2023-02-22T11:46:57.131Z,3.63
2023-02-22T11:49:59.192Z,4.78
2023-02-22T11:54:22.149Z,3.25
2023-02-22T11:58:08.426Z,3.50
2023-02-22T12:05:40.710Z,3.15
2023-02-22T12:09:04.177Z,2.90
2023-02-22T12:12:18.607Z,3.65
2023-02-22T12:19:19.500Z,3.40
2023-02-22T12:22:38.990Z,3.42
2023-02-22T12:26:11.786Z,3.30
2023-02-22T12:29:27.302Z,3.30
2023-02-22T12:32:59.563Z,4.18
2023-02-22T12:36:02.324Z,3.13
2023-02-22T12:39:29.340Z,3.22
2023-02-22T12:42:50.539Z,3.72
2023-02-22T12:46:26.732Z,3.38
2023-02-22T12:49:49.931Z,4.35
2023-02-22T12:53:00.140Z,3.40
2023-02-22T12:56:32.509Z,2.97
2023-02-22T12:59:57.741Z,3.47
2023-02-22T13:03:13.616Z,2.70
2023-02-22T13:06:18.847Z,3.08
2023-02-22T13:09:56.268Z,2.60
2023-02-22T13:13:26.289Z,2.60
2023-02-22T13:16:53.949Z,3.53
2023-02-22T13:20:14.443Z,2.80
2023-02-22T13:23:55.074Z,2.78
2023-02-22T13:27:04.230Z,3.10
2023-02-22T13:31:07.802Z,2.60
2023-02-22T13:34:26.253Z,2.50
2023-02-22T13:38:19.451Z,2.90
2023-02-22T13:41:32.931Z,3.03
2023-02-22T13:45:08.574Z,3.10
2023-02-22T13:48:24.751Z,3.03
2023-02-22T13:51:46.455Z,3.47
2023-02-22T13:55:00.357Z,2.90
2023-02-22T13:58:11.875Z,2.90
2023-02-22T14:01:41.739Z,3.65
2023-02-22T14:04:44.278Z,3.80
2023-02-22T14:07:49.554Z,3.67
2023-02-22T14:10:55.959Z,3.38
2023-02-22T14:14:01.180Z,2.92
2023-02-22T14:17:20.918Z,3.13
2023-02-22T14:20:35.473Z,4.45
2023-02-22T14:23:40.897Z,3.33
2023-02-22T14:26:59.574Z,3.40
2023-02-22T14:30:01.807Z,3.50
2023-02-22T14:33:44.238Z,3.30
2023-02-22T14:37:01.221Z,3.67
2023-02-22T14:40:20.125Z,3.15
2023-02-22T14:43:36.823Z,3.30
2023-02-22T14:46:55.087Z,3.53
2023-02-22T14:50:33.212Z,3.20
2023-02-22T14:53:46.775Z,3.75
2023-02-22T14:57:15.124Z,3.05
2023-02-22T15:00:30.894Z,3.10
2023-02-22T15:03:38.220Z,3.25
2023-02-22T15:06:40.689Z,3.55
2023-02-22T15:09:47.198Z,3.55
2023-02-22T15:13:10.802Z,3.55
2023-02-22T15:16:15.786Z,3.55
2023-02-22T15:19:27.177Z,3.50
2023-02-22T15:22:36.112Z,3.33
2023-02-22T15:25:39.435Z,3.22
2023-02-22T15:28:42.809Z,3.30
2023-02-22T15:31:49.968Z,3.70
2023-02-22T15:34:52.128Z,3.40
2023-02-22T15:38:16.556Z,3.30
2023-02-22T15:41:31.629Z,3.38
2023-02-22T15:44:42.476Z,2.83
2023-02-22T15:47:44.607Z,3.60
2023-02-22T15:51:09.423Z,3.30
2023-02-22T15:54:26.641Z,3.15
2023-02-22T15:57:30.720Z,3.25
2023-02-22T16:00:40.317Z,3.10
2023-02-22T16:03:51.579Z,2.88
2023-02-22T16:07:04.913Z,3.00
2023-02-22T16:10:09.417Z,2.50
2023-02-22T16:13:31.468Z,2.60
2023-02-22T16:16:37.359Z,2.78
2023-02-22T16:19:44.916Z,3.33
2023-02-22T16:22:49.803Z,2.65
2023-02-22T16:26:07.920Z,3.30
2023-02-22T16:29:25.000Z,2.80
2023-02-22T16:32:27.408Z,2.88
2023-02-22T16:35:30.178Z,2.80
2023-02-22T16:38:33.820Z,3.10
2023-02-22T16:41:36.951Z,3.08
2023-02-22T16:44:39.314Z,3.63
2023-02-22T16:47:47.144Z,3.38
2023-02-22T16:50:54.328Z,3.35
2023-02-22T16:53:57.309Z,3.00
2023-02-22T16:57:02.813Z,2.85
2023-02-22T17:00:10.456Z,2.80
2023-02-22T17:03:20.986Z,2.72
2023-02-22T17:06:23.731Z,2.70
2023-02-22T17:09:26.462Z,2.67
2023-02-22T17:12:32.438Z,2.67
2023-02-22T17:15:37.212Z,2.90
2023-02-22T17:18:40.283Z,2.80
2023-02-22T17:21:42.385Z,2.88
2023-02-22T17:25:00.012Z,3.20
2023-02-22T17:31:05.663Z,3.00
2023-02-22T17:34:08.545Z,4.18
2023-02-22T17:37:10.964Z,3.72
2023-02-22T17:40:15.083Z,3.40
2023-02-22T17:43:19.485Z,3.75
2023-02-22T17:46:22.056Z,3.83
2023-02-22T17:49:24.477Z,4.30
2023-02-22T17:52:30.622Z,4.72
2023-02-22T17:55:38.339Z,4.88
2023-02-22T17:58:41.455Z,4.50
2023-02-22T18:01:44.560Z,5.77
2023-02-22T18:04:48.452Z,5.13
2023-02-22T18:07:51.456Z,5.85
2023-02-22T18:10:56.812Z,6.78
2023-02-22T18:13:59.996Z,6.18
2023-02-22T18:17:02.576Z,6.28
2023-02-22T18:20:15.535Z,5.40
2023-02-22T18:23:21.300Z,5.50
2023-02-22T18:26:25.543Z,5.97
2023-02-22T18:29:29.072Z,5.78
2023-02-22T18:32:32.077Z,5.63
2023-02-22T18:35:34.630Z,5.78
2023-02-22T18:38:44.013Z,5.28
2023-02-22T18:41:48.793Z,5.88
2023-02-22T18:44:53.068Z,5.90
2023-02-22T18:47:55.208Z,5.60
2023-02-22T18:51:01.528Z,6.47
2023-02-22T18:54:13.176Z,5.28
2023-02-22T18:57:17.298Z,6.30
2023-02-22T19:00:28.971Z,6.25
2023-02-22T19:03:38.477Z,5.47
2023-02-22T19:06:48.340Z,5.95
2023-02-22T19:09:51.945Z,5.82
2023-02-22T19:12:58.397Z,6.00
2023-02-22T19:16:10.502Z,5.90
2023-02-22T19:19:15.015Z,5.82
2023-02-22T19:22:17.310Z,6.53
2023-02-22T19:25:19.377Z,5.95
2023-02-22T19:28:28.872Z,5.75
2023-02-22T19:31:34.090Z,5.80
2023-02-22T19:34:37.817Z,5.93
2023-02-22T19:37:42.183Z,5.45
2023-02-22T19:41:16.278Z,5.68
2023-02-22T19:44:29.616Z,6.25
2023-02-22T19:47:34.841Z,5.95
2023-02-22T19:50:48.740Z,5.70
2023-02-22T19:53:52.148Z,5.40
2023-02-22T19:56:58.846Z,5.45
2023-02-22T20:00:10.852Z,5.80
2023-02-22T20:03:15.690Z,6.05
2023-02-22T20:06:18.133Z,5.85
2023-02-22T20:09:40.419Z,5.53
2023-02-22T20:12:45.651Z,5.63
2023-02-22T20:15:50.824Z,5.00
2023-02-22T20:18:54.937Z,5.50
2023-02-22T20:21:57.617Z,5.70
2023-02-22T20:25:00.353Z,5.78
2023-02-22T20:28:02.593Z,5.65
2023-02-22T20:31:11.367Z,6.22
2023-02-22T20:34:13.789Z,5.65
2023-02-22T20:37:16.393Z,5.85
2023-02-22T20:40:18.880Z,5.80
2023-02-22T20:43:21.998Z,5.85
2023-02-22T20:46:25.377Z,6.05
2023-02-22T20:49:28.834Z,6.28
2023-02-22T20:52:31.501Z,6.22
2023-02-22T20:55:34.288Z,5.95
2023-02-22T20:58:36.458Z,5.82
2023-02-22T21:01:39.945Z,6.13
2023-02-22T21:04:42.191Z,5.97
2023-02-22T21:07:45.090Z,5.40
2023-02-22T21:10:48.403Z,6.03
2023-02-22T21:13:52.092Z,5.95
2023-02-22T21:16:54.397Z,5.35
2023-02-22T21:19:59.039Z,5.35
2023-02-22T21:23:03.299Z,6.10
2023-02-22T21:26:07.387Z,10.43
2023-02-22T21:29:10.806Z,11.10
2023-02-22T21:35:16.839Z,22.20
2023-02-22T21:38:21.023Z,14.40
2023-02-22T21:41:27.961Z,23.45
2023-02-22T21:44:30.707Z,11.32
2023-02-22T21:47:35.940Z,23.85
2023-02-22T21:50:38.412Z,23.77
2023-02-22T21:53:48.219Z,24.20
2023-02-22T21:56:50.970Z,27.17
2023-02-22T21:59:53.468Z,31.05
2023-02-22T22:03:09.888Z,29.58
2023-02-22T22:06:13.720Z,30.67
2023-02-22T22:09:19.695Z,29.83
2023-02-22T22:12:25.969Z,18.65
2023-02-22T22:15:42.758Z,10.95
2023-02-22T22:18:47.292Z,8.45
2023-02-22T22:21:53.514Z,7.18
2023-02-22T22:24:55.787Z,6.57
2023-02-22T22:27:58.145Z,6.55
2023-02-22T22:31:00.231Z,5.32
2023-02-22T22:34:02.899Z,5.40
2023-02-22T22:37:05.116Z,5.10
2023-02-22T22:40:15.880Z,5.10
2023-02-22T22:43:18.318Z,4.47
2023-02-22T22:46:21.684Z,4.85
2023-02-22T22:49:26.142Z,4.68
2023-02-22T22:52:31.558Z,4.28
2023-02-22T22:55:33.559Z,4.13
2023-02-22T22:58:36.869Z,4.05
2023-02-22T23:01:44.713Z,4.18
2023-02-22T23:04:52.130Z,3.75
2023-02-22T23:07:56.559Z,3.92
2023-02-22T23:10:59.097Z,4.03
2023-02-22T23:14:04.863Z,3.75
2023-02-22T23:17:14.270Z,3.67
2023-02-22T23:20:17.314Z,18.73
2023-02-22T23:23:20.168Z,5.30
2023-02-22T23:26:26.950Z,4.47
2023-02-22T23:29:32.444Z,4.03
2023-02-22T23:32:35.268Z,4.40
2023-02-22T23:35:38.710Z,4.30
2023-02-22T23:38:42.571Z,4.07
2023-02-22T23:41:45.502Z,3.40
2023-02-22T23:44:48.179Z,3.53
2023-02-22T23:47:57.448Z,3.67
2023-02-22T23:50:59.903Z,3.15
2023-02-22T23:54:02.471Z,3.00
2023-02-22T23:57:06.417Z,3.08
